Time;durP1;ratioP1;P1;durP2;ratioP2;P2;SDS_P1;SDS_P2;PMS_P1;PMS_P2;Temp;Humidity;BMP_temperature;BMP_pressure;BME280_temperature;BME280_humidity;BME280_pressure;Samples;Min_cycle;Max_cycle;Signal;HPM_P1;HPM_P2
2023/05/19 00:00:29;;;;;;;12.02;7.72;;;;;;;6.44;100.00;102621.56;1279943;23;20248;-75
2023/05/19 00:01:01;;;;;;;8.32;6.85;;;;;;;6.59;100.00;102624.59;1271872;23;20268;-75
2023/05/19 00:01:36;;;;;;;8.10;6.63;;;;;;;6.70;100.00;102617.28;1266883;23;20810;-76
2023/05/19 00:02:08;;;;;;;9.48;6.22;;;;;;;6.82;100.00;102621.38;1265631;23;20356;-75
2023/05/19 00:02:42;;;;;;;12.57;6.72;;;;;;;7.00;100.00;102621.44;1270846;23;20735;-75
2023/05/19 00:03:20;;;;;;;7.30;5.65;;;;;;;7.09;100.00;102623.19;1282666;23;20256;-75
2023/05/19 00:03:56;;;;;;;12.88;6.78;;;;;;;7.12;100.00;102620.25;1266315;23;20262;-75
2023/05/19 00:04:35;;;;;;;12.70;6.32;;;;;;;7.12;100.00;102622.91;1266492;23;20277;-75
2023/05/19 00:05:09;;;;;;;11.30;6.38;;;;;;;7.08;100.00;102621.50;1261793;23;20305;-75
2023/05/19 00:05:44;;;;;;;9.43;5.72;;;;;;;6.94;100.00;102619.38;1272661;23;20277;-75
2023/05/19 00:06:18;;;;;;;6.65;6.05;;;;;;;7.01;100.00;102620.44;1277615;23;20589;-75
2023/05/19 00:06:50;;;;;;;10.10;5.57;;;;;;;7.02;100.00;102615.97;1269624;23;20254;-75
2023/05/19 00:07:24;;;;;;;11.65;6.07;;;;;;;7.01;100.00;102620.44;1265699;23;20359;-75
2023/05/19 00:07:59;;;;;;;14.65;5.75;;;;;;;7.08;100.00;102618.03;1261653;23;20809;-76
2023/05/19 00:08:33;;;;;;;9.60;5.50;;;;;;;7.00;100.00;102615.28;1267261;23;20415;-75
2023/05/19 00:09:13;;;;;;;6.45;5.85;;;;;;;7.01;100.00;102616.97;1275299;23;20651;-75
2023/05/19 00:09:46;;;;;;;7.43;5.38;;;;;;;7.01;100.00;102615.16;1283478;23;20264;-75
2023/05/19 00:10:18;;;;;;;6.22;5.60;;;;;;;7.16;100.00;102622.59;1286194;23;20259;-74
2023/05/19 00:10:50;;;;;;;11.32;6.60;;;;;;;7.15;100.00;102618.28;1289239;23;20255;-75
2023/05/19 00:11:23;;;;;;;8.85;6.45;;;;;;;7.16;100.00;102617.31;1286217;23;20686;-75
2023/05/19 00:11:57;;;;;;;7.30;5.72;;;;;;;7.12;100.00;102617.59;1281122;23;20263;-77
2023/05/19 00:12:33;;;;;;;10.95;6.45;;;;;;;6.92;100.00;102608.09;1273961;23;20327;-75
2023/05/19 00:13:05;;;;;;;10.65;5.60;;;;;;;6.73;100.00;102610.84;1276051;23;21006;-76
2023/05/19 00:13:37;;;;;;;6.63;4.82;;;;;;;6.71;100.00;102615.47;1276321;23;20782;-75
2023/05/19 00:14:09;;;;;;;7.70;5.85;;;;;;;6.72;100.00;102617.13;1273754;23;20257;-75
2023/05/19 00:14:41;;;;;;;8.20;5.55;;;;;;;6.59;100.00;102616.66;1273756;23;20253;-75
2023/05/19 00:15:13;;;;;;;8.38;5.45;;;;;;;6.61;100.00;102622.63;1274701;23;20592;-75
2023/05/19 00:15:45;;;;;;;8.52;4.97;;;;;;;6.61;100.00;102612.88;1281847;23;20315;-75
2023/05/19 00:16:17;;;;;;;7.35;6.25;;;;;;;6.48;100.00;102615.84;1281390;23;20252;-79
2023/05/19 00:16:49;;;;;;;5.50;4.90;;;;;;;6.48;100.00;102610.53;1279690;23;20739;-79
2023/05/19 00:17:21;;;;;;;7.60;5.88;;;;;;;6.64;100.00;102611.75;1272752;23;20384;-75
2023/05/19 00:17:54;;;;;;;8.63;6.13;;;;;;;6.77;100.00;102607.75;1264005;23;20869;-78
2023/05/19 00:18:28;;;;;;;10.48;5.75;;;;;;;6.83;100.00;102611.63;1261384;23;20262;-79
2023/05/19 00:19:03;;;;;;;8.02;5.72;;;;;;;6.64;100.00;102609.09;1265138;23;20268;-76
2023/05/19 00:19:38;;;;;;;7.13;5.18;;;;;;;6.56;100.00;102611.63;1270951;23;20356;-75
2023/05/19 00:20:10;;;;;;;9.18;5.80;;;;;;;6.66;100.00;102612.44;1276911;23;20608;-75
2023/05/19 00:20:42;;;;;;;7.38;5.45;;;;;;;6.54;100.00;102610.94;1280148;23;20339;-75
2023/05/19 00:21:15;;;;;;;10.77;5.88;;;;;;;6.44;100.00;102609.16;1280959;23;20716;-75
2023/05/19 00:21:46;;;;;;;11.73;5.50;;;;;;;6.40;100.00;102610.44;1281622;23;20706;-77
2023/05/19 00:22:18;;;;;;;10.68;6.95;;;;;;;6.44;100.00;102611.81;1280862;23;20256;-76
2023/05/19 00:22:50;;;;;;;13.30;5.97;;;;;;;6.47;100.00;102611.53;1273877;23;20323;-76
2023/05/19 00:23:21;;;;;;;7.15;5.95;;;;;;;6.41;100.00;102612.13;1274660;23;20323;-76
2023/05/19 00:23:53;;;;;;;8.95;5.85;;;;;;;6.39;100.00;102608.78;1277655;23;20256;-75
2023/05/19 00:24:25;;;;;;;8.65;5.40;;;;;;;6.57;100.00;102611.47;1266580;23;20404;-79
2023/05/19 00:24:57;;;;;;;8.23;4.72;;;;;;;6.45;100.00;102610.84;1274843;23;20257;-75
2023/05/19 00:25:28;;;;;;;9.48;6.47;;;;;;;6.44;100.00;102609.16;1274434;23;20260;-75
2023/05/19 00:26:00;;;;;;;11.23;6.30;;;;;;;6.62;100.00;102613.69;1275112;23;20253;-76
2023/05/19 00:26:32;;;;;;;14.57;5.97;;;;;;;6.73;100.00;102605.56;1286295;23;20255;-76
2023/05/19 00:27:08;;;;;;;10.88;6.43;;;;;;;6.73;100.00;102616.97;1280235;23;20665;-75
2023/05/19 00:27:42;;;;;;;7.50;5.88;;;;;;;6.85;100.00;102614.97;1267799;23;20661;-75
2023/05/19 00:28:14;;;;;;;10.05;6.53;;;;;;;6.82;100.00;102621.38;1273703;23;20684;-75
2023/05/19 00:28:45;;;;;;;9.13;6.38;;;;;;;6.86;100.00;102621.94;1270082;23;20620;-75
2023/05/19 00:29:17;;;;;;;9.90;5.95;;;;;;;6.89;100.00;102615.53;1266172;23;20432;-75
2023/05/19 00:29:50;;;;;;;12.05;6.18;;;;;;;6.89;100.00;102616.34;1274657;23;20732;-75
2023/05/19 00:30:21;;;;;;;12.05;5.97;;;;;;;6.86;100.00;102611.34;1281044;23;20652;-75
2023/05/19 00:30:53;;;;;;;10.05;6.15;;;;;;;6.85;100.00;102606.19;1280880;23;20260;-75
2023/05/19 00:31:25;;;;;;;10.43;6.50;;;;;;;6.85;100.00;102612.34;1271627;23;20723;-75
2023/05/19 00:31:57;;;;;;;8.82;6.55;;;;;;;6.87;100.00;102613.03;1267799;23;20253;-75
2023/05/19 00:32:28;;;;;;;9.07;6.20;;;;;;;6.92;100.00;102615.22;1265675;23;20274;-75
2023/05/19 00:33:00;;;;;;;12.77;6.32;;;;;;;6.95;100.00;102610.44;1269038;23;20285;-75
2023/05/19 00:33:32;;;;;;;12.43;7.22;;;;;;;6.88;100.00;102609.38;1280855;23;20255;-75
2023/05/19 00:34:05;;;;;;;8.52;6.07;;;;;;;6.84;100.00;102608.00;1274679;23;20280;-75
2023/05/19 00:34:37;;;;;;;8.35;6.55;;;;;;;6.86;100.00;102611.34;1273752;23;20253;-75
2023/05/19 00:35:08;;;;;;;8.57;5.93;;;;;;;6.95;100.00;102610.44;1273719;23;20256;-75
2023/05/19 00:35:40;;;;;;;7.00;6.35;;;;;;;6.94;100.00;102607.94;1261455;23;20289;-75
2023/05/19 00:36:12;;;;;;;7.07;5.72;;;;;;;6.83;100.00;102611.63;1266652;23;20300;-76
2023/05/19 00:36:44;;;;;;;13.00;7.65;;;;;;;6.77;100.00;102607.75;1273655;23;20257;-75
2023/05/19 00:37:17;;;;;;;9.50;6.18;;;;;;;6.64;100.00;102607.28;1261901;23;20280;-75
2023/05/19 00:37:49;;;;;;;11.48;6.93;;;;;;;6.73;100.00;102610.84;1268931;23;20250;-75
2023/05/19 00:38:21;;;;;;;7.07;6.05;;;;;;;6.78;100.00;102608.59;1267663;23;20340;-75
2023/05/19 00:38:53;;;;;;;15.32;6.07;;;;;;;6.86;100.00;102603.41;1269458;23;20250;-75
2023/05/19 00:39:24;;;;;;;8.07;6.28;;;;;;;6.79;100.00;102599.66;1280790;23;20338;-76
2023/05/19 00:39:58;;;;;;;13.02;6.45;;;;;;;6.93;100.00;102609.78;1279529;23;20402;-75
2023/05/19 00:40:35;;;;;;;9.85;5.55;;;;;;;6.65;100.00;102602.81;1281147;23;20607;-79
2023/05/19 00:41:07;;;;;;;9.48;6.15;;;;;;;6.63;100.00;102602.13;1272430;23;20257;-79
2023/05/19 00:41:39;;;;;;;9.15;6.53;;;;;;;6.51;100.00;102602.31;1269940;23;20265;-79
2023/05/19 00:42:10;;;;;;;6.22;5.50;;;;;;;6.57;100.00;102600.88;1269441;23;20257;-79
2023/05/19 00:42:42;;;;;;;12.07;6.22;;;;;;;6.70;100.00;102595.25;1254215;23;20267;-79
2023/05/19 00:43:14;;;;;;;6.35;5.45;;;;;;;6.74;100.00;102602.75;1256694;23;20259;-79
2023/05/19 00:43:46;;;;;;;9.27;6.47;;;;;;;6.64;100.00;102601.16;1256175;23;20262;-79
2023/05/19 00:44:18;;;;;;;7.13;5.65;;;;;;;6.59;100.00;102614.00;1264170;23;20765;-79
2023/05/19 00:44:50;;;;;;;6.82;6.18;;;;;;;6.63;100.00;102597.66;1274801;23;20332;-78
2023/05/19 00:45:21;;;;;;;6.15;5.53;;;;;;;6.51;100.00;102602.31;1272418;23;20265;-78
2023/05/19 00:45:56;;;;;;;8.30;5.97;;;;;;;6.63;100.00;102602.97;1280619;23;20259;-78
2023/05/19 00:46:29;;;;;;;8.40;6.15;;;;;;;6.66;100.00;102607.13;1282553;23;20348;-75
2023/05/19 00:47:01;;;;;;;8.57;6.20;;;;;;;6.53;100.00;102609.25;1286213;23;20252;-75
2023/05/19 00:47:33;;;;;;;7.63;6.25;;;;;;;6.46;100.00;102606.38;1271487;23;20276;-75
2023/05/19 00:48:05;;;;;;;12.65;6.57;;;;;;;6.33;100.00;102603.25;1273734;23;20766;-75
2023/05/19 00:48:36;;;;;;;11.77;6.32;;;;;;;6.36;100.00;102603.78;1273498;23;20260;-75
2023/05/19 00:49:09;;;;;;;6.90;5.90;;;;;;;6.55;100.00;102602.00;1276770;23;20348;-75
2023/05/19 00:49:44;;;;;;;12.10;6.72;;;;;;;6.64;100.00;102606.44;1273589;23;20277;-78
2023/05/19 00:50:15;;;;;;;11.70;6.28;;;;;;;6.75;100.00;102603.59;1280144;23;20683;-79
2023/05/19 00:50:49;;;;;;;10.60;6.03;;;;;;;6.58;100.00;102613.16;1265410;23;20795;-78
2023/05/19 00:51:21;;;;;;;11.15;6.72;;;;;;;6.55;100.00;102602.00;1261039;23;20655;-79
2023/05/19 00:51:54;;;;;;;9.38;6.65;;;;;;;6.41;100.00;102600.69;1261843;23;20752;-78
2023/05/19 00:52:26;;;;;;;13.95;6.45;;;;;;;6.34;100.00;102610.19;1264270;23;20329;-79
2023/05/19 00:52:58;;;;;;;10.40;5.75;;;;;;;6.27;100.00;102598.50;1274614;23;20284;-78
2023/05/19 00:53:31;;;;;;;7.47;5.65;;;;;;;6.21;100.00;102610.50;1268481;23;20254;-79
2023/05/19 00:54:05;;;;;;;9.63;5.68;;;;;;;6.18;100.00;102605.50;1260582;23;20273;-78
2023/05/19 00:54:36;;;;;;;8.80;5.93;;;;;;;6.12;100.00;102604.28;1265802;23;20266;-79
2023/05/19 00:55:10;;;;;;;6.85;5.50;;;;;;;6.23;100.00;102602.41;1260273;23;20317;-75
2023/05/19 00:55:46;;;;;;;11.82;6.78;;;;;;;6.44;100.00;102601.22;1265979;23;20298;-79
2023/05/19 00:56:17;;;;;;;10.38;7.25;;;;;;;6.51;100.00;102602.31;1277524;23;20328;-79
2023/05/19 00:56:49;;;;;;;12.18;5.93;;;;;;;6.65;100.00;102602.81;1279575;23;20256;-79
2023/05/19 00:57:21;;;;;;;9.77;6.38;;;;;;;6.67;100.00;102604.34;1272419;23;20336;-79
2023/05/19 00:58:03;;;;;;;7.93;6.97;;;;;;;6.74;100.00;102600.09;1259193;23;20273;-79
2023/05/19 00:58:35;;;;;;;12.88;6.63;;;;;;;6.68;100.00;102597.22;1264043;23;20022;-78
2023/05/19 00:59:07;;;;;;;8.95;6.25;;;;;;;6.67;100.00;102598.22;1273622;23;20324;-78
2023/05/19 00:59:39;;;;;;;7.65;6.93;;;;;;;6.53;100.00;102601.31;1284182;23;20256;-78
2023/05/19 01:00:12;;;;;;;9.23;6.72;;;;;;;6.42;100.00;102592.59;1284749;23;20321;-75
2023/05/19 01:00:44;;;;;;;8.38;6.22;;;;;;;6.42;100.00;102597.91;1277828;23;20388;-74
2023/05/19 01:01:16;;;;;;;8.77;6.47;;;;;;;6.51;100.00;102591.72;1273667;23;20260;-75
2023/05/19 01:01:48;;;;;;;8.82;5.90;;;;;;;6.31;100.00;102592.81;1274849;23;20324;-75
2023/05/19 01:02:20;;;;;;;10.48;5.75;;;;;;;6.29;100.00;102592.09;1272323;23;20656;-75
2023/05/19 01:02:53;;;;;;;8.90;5.70;;;;;;;6.32;100.00;102586.53;1272843;23;20271;-75
2023/05/19 01:03:24;;;;;;;7.13;5.82;;;;;;;6.35;100.00;102591.53;1273502;23;20256;-75
2023/05/19 01:03:57;;;;;;;8.48;5.45;;;;;;;6.39;100.00;102587.59;1262345;23;20330;-75
2023/05/19 01:04:33;;;;;;;8.15;6.47;;;;;;;6.33;100.00;102590.84;1260526;23;20377;-76
2023/05/19 01:05:05;;;;;;;7.85;6.10;;;;;;;6.20;100.00;102582.38;1269600;23;20258;-76
2023/05/19 01:05:41;;;;;;;6.30;5.28;;;;;;;6.25;100.00;102590.72;1273739;23;20253;-75
2023/05/19 01:06:13;;;;;;;8.85;5.25;;;;;;;6.22;100.00;102580.41;1278678;23;20706;-75
2023/05/19 01:06:47;;;;;;;8.80;6.82;;;;;;;6.36;100.00;102582.59;1288661;23;20247;-75
2023/05/19 01:07:19;;;;;;;8.48;6.80;;;;;;;6.29;100.00;102592.09;1286356;23;20754;-75
2023/05/19 01:07:54;;;;;;;9.70;5.78;;;;;;;6.48;100.00;102592.00;1286131;23;20263;-76
2023/05/19 01:08:27;;;;;;;7.90;5.97;;;;;;;6.48;100.00;102597.31;1286102;23;20294;-75
2023/05/19 01:08:58;;;;;;;10.95;6.55;;;;;;;6.49;100.00;102588.38;1273234;23;20268;-75
2023/05/19 01:09:31;;;;;;;9.48;6.30;;;;;;;6.52;100.00;102592.53;1279728;23;20306;-75
2023/05/19 01:10:05;;;;;;;12.57;6.32;;;;;;;6.52;100.00;102584.59;1279833;23;20252;-75
2023/05/19 01:10:37;;;;;;;9.27;6.80;;;;;;;6.57;100.00;102589.47;1275043;23;20253;-75
2023/05/19 01:11:09;;;;;;;11.68;7.38;;;;;;;6.55;100.00;102592.25;1279764;23;20248;-75
2023/05/19 01:11:41;;;;;;;11.43;7.20;;;;;;;6.51;100.00;102591.72;1275410;23;20280;-75
2023/05/19 01:12:13;;;;;;;10.13;7.00;;;;;;;6.51;100.00;102586.41;1274413;23;20316;-75
2023/05/19 01:12:46;;;;;;;12.90;7.70;;;;;;;6.53;100.00;102591.56;1273980;23;20716;-75
2023/05/19 01:13:17;;;;;;;12.20;7.60;;;;;;;6.50;100.00;102595.34;1268547;23;20261;-76
2023/05/19 01:13:49;;;;;;;9.75;6.82;;;;;;;6.48;100.00;102591.19;1274778;23;20958;-75
2023/05/19 01:14:21;;;;;;;11.68;7.50;;;;;;;6.44;100.00;102589.81;1274481;23;20759;-76
2023/05/19 01:14:53;;;;;;;9.15;7.07;;;;;;;6.46;100.00;102587.84;1274652;23;20257;-75
2023/05/19 01:15:25;;;;;;;9.88;6.90;;;;;;;6.49;100.00;102587.56;1273515;23;20261;-75
2023/05/19 01:16:05;;;;;;;8.57;7.28;;;;;;;6.51;100.00;102590.88;1281187;23;20326;-76
2023/05/19 01:16:42;;;;;;;11.43;6.55;;;;;;;6.40;100.00;102583.97;1286070;23;20243;-76
2023/05/19 01:17:33;;;;;;;11.15;7.22;;;;;;;6.42;100.00;102582.00;1279649;23;20592;-75
2023/05/19 01:18:13;;;;;;;12.02;7.22;;;;;;;6.39;100.00;102582.31;1279952;23;20671;-75
2023/05/19 01:19:09;;;;;;;10.93;6.30;;;;;;;6.45;100.00;102587.00;1279362;23;20020;-75
2023/05/19 01:19:55;;;;;;;10.32;6.32;;;;;;;6.48;100.00;102592.00;1279656;23;20024;-75
2023/05/19 01:20:33;;;;;;;11.40;6.70;;;;;;;6.49;100.00;102588.38;1281759;23;20620;-75
2023/05/19 01:21:22;;;;;;;8.60;5.53;;;;;;;6.46;100.00;102593.97;1279774;23;20256;-76
2023/05/19 01:22:15;;;;;;;11.18;6.22;;;;;;;6.42;100.00;102587.31;1279977;23;20708;-76
2023/05/19 01:23:13;;;;;;;7.40;5.88;;;;;;;6.41;100.00;102590.94;1267850;23;20269;-75
2023/05/19 01:23:52;;;;;;;9.70;5.25;;;;;;;6.42;100.00;102595.25;1272115;23;20259;-75
2023/05/19 01:24:38;;;;;;;10.48;6.55;;;;;;;6.33;100.00;102592.66;1276354;23;20264;-75
2023/05/19 01:25:38;;;;;;;8.60;5.18;;;;;;;6.31;100.00;102595.44;1279755;23;20797;-76
2023/05/19 01:26:45;;;;;;;6.68;5.30;;;;;;;6.28;100.00;102585.13;1274730;23;20914;-75
2023/05/19 01:27:48;;;;;;;8.88;6.13;;;;;;;6.25;100.00;102589.88;1279589;23;20271;-75
2023/05/19 01:28:55;;;;;;;9.93;5.50;;;;;;;6.25;100.00;102590.72;1293323;23;20255;-76
2023/05/19 01:29:54;;;;;;;8.98;5.03;;;;;;;6.25;100.00;102589.88;1277792;23;20331;-79
2023/05/19 01:30:44;;;;;;;11.63;4.80;;;;;;;6.17;100.00;102594.09;1280335;23;20271;-75
2023/05/19 01:31:17;;;;;;;7.35;4.38;;;;;;;6.16;100.00;102588.94;1272337;23;20301;-79
2023/05/19 01:31:53;;;;;;;5.57;4.43;;;;;;;6.15;100.00;102587.28;1266095;23;20405;-76
2023/05/19 01:32:25;;;;;;;10.43;5.60;;;;;;;6.09;100.00;102590.50;1261992;23;20820;-75
2023/05/19 01:33:05;;;;;;;8.30;5.22;;;;;;;6.14;100.00;102593.53;1259773;23;20263;-75
2023/05/19 01:33:39;;;;;;;7.50;4.68;;;;;;;6.17;100.00;102598.53;1268572;23;20694;-75
2023/05/19 01:34:12;;;;;;;8.73;5.00;;;;;;;6.05;100.00;102597.06;1265579;23;20675;-75
2023/05/19 01:34:45;;;;;;;6.90;5.55;;;;;;;6.07;100.00;102592.47;1261578;23;20254;-74
2023/05/19 01:35:17;;;;;;;11.68;5.05;;;;;;;6.03;100.00;102596.38;1258753;23;20255;-75
2023/05/19 01:35:50;;;;;;;8.95;4.93;;;;;;;6.00;100.00;102594.81;1263997;23;20261;-75
2023/05/19 01:36:22;;;;;;;9.73;4.63;;;;;;;5.91;100.00;102592.19;1275304;23;20253;-75
2023/05/19 01:36:54;;;;;;;5.47;4.03;;;;;;;6.00;100.00;102593.97;1265383;23;20281;-75
2023/05/19 01:37:27;;;;;;;8.00;5.18;;;;;;;5.98;100.00;102588.84;1268876;23;20254;-75
2023/05/19 01:38:00;;;;;;;6.18;4.65;;;;;;;5.98;100.00;102598.59;1265590;23;20279;-75
2023/05/19 01:38:37;;;;;;;6.68;4.18;;;;;;;5.98;100.00;102594.13;1273739;23;20276;-77
2023/05/19 01:39:08;;;;;;;9.05;5.25;;;;;;;5.94;100.00;102592.75;1271490;23;20319;-75
2023/05/19 01:39:41;;;;;;;5.60;4.60;;;;;;;5.89;100.00;102590.53;1269817;23;20735;-76
2023/05/19 01:40:13;;;;;;;6.68;4.65;;;;;;;5.94;100.00;102598.03;1281164;23;20254;-74
2023/05/19 01:40:46;;;;;;;7.93;4.65;;;;;;;5.84;100.00;102597.19;1280799;23;20256;-75
2023/05/19 01:41:20;;;;;;;4.53;4.15;;;;;;;5.93;100.00;102590.25;1279979;23;20323;-75
2023/05/19 01:41:52;;;;;;;12.13;5.40;;;;;;;5.96;100.00;102595.25;1273446;23;20612;-75
2023/05/19 01:42:25;;;;;;;7.55;4.95;;;;;;;5.96;100.00;102592.59;1269341;23;20256;-75
2023/05/19 01:42:58;;;;;;;7.72;4.85;;;;;;;5.96;100.00;102597.91;1269155;23;20264;-75
2023/05/19 01:43:30;;;;;;;8.68;5.35;;;;;;;5.95;100.00;102593.59;1269327;23;20249;-75
2023/05/19 01:44:02;;;;;;;5.28;4.78;;;;;;;5.91;100.00;102589.56;1265292;23;20266;-75
2023/05/19 01:44:34;;;;;;;6.38;4.78;;;;;;;5.87;100.00;102589.81;1268926;23;20269;-75
2023/05/19 01:45:09;;;;;;;8.25;4.45;;;;;;;5.92;100.00;102600.00;1268499;23;20265;-75
2023/05/19 01:45:41;;;;;;;14.60;5.15;;;;;;;5.96;100.00;102596.09;1268244;23;20289;-75
2023/05/19 01:46:13;;;;;;;7.35;4.72;;;;;;;5.82;100.00;102592.06;1273278;23;20736;-76
2023/05/19 01:46:46;;;;;;;6.53;4.50;;;;;;;5.85;100.00;102594.41;1269229;23;20934;-75
2023/05/19 01:47:18;;;;;;;6.68;4.90;;;;;;;5.84;100.00;102592.75;1263008;23;20266;-78
2023/05/19 01:47:55;;;;;;;8.38;4.85;;;;;;;5.87;100.00;102592.47;1263249;23;20309;-77
2023/05/19 01:48:28;;;;;;;7.95;4.80;;;;;;;5.86;100.00;102597.91;1261430;23;20266;-75
2023/05/19 01:49:01;;;;;;;6.15;5.57;;;;;;;5.87;100.00;102592.47;1263893;23;20737;-75
2023/05/19 01:49:33;;;;;;;9.65;4.60;;;;;;;5.89;100.00;102593.19;1261949;23;20408;-76
2023/05/19 01:50:06;;;;;;;7.95;5.18;;;;;;;5.82;100.00;102586.78;1260473;23;20703;-74
2023/05/19 01:50:38;;;;;;;7.80;5.20;;;;;;;5.88;100.00;102594.13;1261359;23;20262;-76
2023/05/19 01:51:10;;;;;;;8.32;5.07;;;;;;;5.88;100.00;102596.78;1269820;23;20313;-78
2023/05/19 01:51:48;;;;;;;6.13;4.72;;;;;;;5.63;100.00;102596.53;1276118;23;20269;-77
2023/05/19 01:52:19;;;;;;;6.32;4.75;;;;;;;5.71;100.00;102586.91;1278750;23;20256;-78
2023/05/19 01:52:53;;;;;;;5.80;4.55;;;;;;;5.75;100.00;102590.97;1279805;23;20260;-78
2023/05/19 01:53:25;;;;;;;12.88;5.53;;;;;;;5.67;100.00;102595.28;1280092;23;20331;-79
2023/05/19 01:53:56;;;;;;;5.72;5.03;;;;;;;5.65;100.00;102598.06;1273789;23;20249;-79
2023/05/19 01:54:28;;;;;;;5.47;4.88;;;;;;;5.56;100.00;102589.16;1268610;23;20257;-79
2023/05/19 01:55:00;;;;;;;10.05;5.15;;;;;;;5.52;100.00;102586.94;1260598;23;20270;-79
2023/05/19 01:55:33;;;;;;;7.20;4.45;;;;;;;5.48;100.00;102585.56;1262555;23;20320;-79
2023/05/19 01:56:06;;;;;;;7.97;4.88;;;;;;;5.55;100.00;102586.66;1256394;23;20342;-79
2023/05/19 01:56:59;;;;;;;8.40;4.78;;;;;;;5.59;100.00;102582.75;1266746;23;20746;-78
2023/05/19 01:57:50;;;;;;;10.00;4.50;;;;;;;5.71;100.00;102586.06;1271403;23;20265;-79
2023/05/19 01:58:40;;;;;;;11.07;5.45;;;;;;;5.74;100.00;102586.63;1282921;23;20256;-79
2023/05/19 01:59:26;;;;;;;10.93;4.88;;;;;;;5.76;100.00;102586.50;1280353;23;20024;-75
2023/05/19 02:00:08;;;;;;;7.97;5.35;;;;;;;5.71;100.00;102586.91;1277576;23;20789;-75
2023/05/19 02:01:02;;;;;;;13.27;5.03;;;;;;;5.71;100.00;102589.56;1280293;23;20259;-75
2023/05/19 02:01:49;;;;;;;6.13;4.82;;;;;;;5.80;100.00;102590.53;1287309;23;20808;-75
2023/05/19 02:02:29;;;;;;;7.72;5.20;;;;;;;5.79;100.00;102584.41;1292764;22;21091;-75
2023/05/19 02:03:06;;;;;;;6.50;4.70;;;;;;;5.83;100.00;102582.31;1292795;22;20713;-75
2023/05/19 02:03:48;;;;;;;13.52;5.93;;;;;;;5.71;100.00;102586.06;1292714;23;20247;-75
2023/05/19 02:04:38;;;;;;;9.88;5.00;;;;;;;5.67;100.00;102580.25;1293969;22;20586;-75
2023/05/19 02:05:28;;;;;;;6.97;5.35;;;;;;;5.66;100.00;102578.56;1292268;22;20258;-76
2023/05/19 02:06:39;;;;;;;9.75;5.35;;;;;;;5.50;100.00;102580.97;1294380;23;20687;-76
2023/05/19 02:07:22;;;;;;;5.93;4.35;;;;;;;5.40;100.00;102583.59;1284271;23;20264;-79
2023/05/19 02:08:21;;;;;;;7.60;4.40;;;;;;;5.35;100.00;102582.34;1292837;23;20330;-79
2023/05/19 02:08:57;;;;;;;8.70;4.90;;;;;;;5.27;100.00;102591.81;1268930;23;20295;-79
2023/05/19 02:09:40;;;;;;;6.22;4.35;;;;;;;5.24;100.00;102584.16;1272530;23;20261;-79
2023/05/19 02:10:23;;;;;;;6.45;4.13;;;;;;;5.28;100.00;102580.28;1286321;23;20784;-78
2023/05/19 02:11:39;;;;;;;7.15;4.68;;;;;;;5.25;100.00;102583.19;1281926;23;20021;-75
2023/05/19 02:12:24;;;;;;;9.07;3.97;;;;;;;5.18;100.00;102579.41;1277988;23;20279;-75
2023/05/19 02:12:58;;;;;;;10.00;5.30;;;;;;;5.14;100.00;102580.66;1286117;23;20259;-76
2023/05/19 02:13:33;;;;;;;11.20;5.63;;;;;;;5.15;100.00;102581.50;1272104;23;20271;-75
2023/05/19 02:14:14;;;;;;;8.50;5.47;;;;;;;5.12;100.00;102576.50;1278383;23;20284;-75
2023/05/19 02:15:04;;;;;;;7.65;4.65;;;;;;;5.20;100.00;102587.19;1266420;23;20276;-75
2023/05/19 02:15:43;;;;;;;11.93;5.80;;;;;;;5.27;100.00;102577.78;1272043;23;20271;-76
2023/05/19 02:16:16;;;;;;;7.13;4.40;;;;;;;5.20;100.00;102579.28;1273866;23;20260;-76
2023/05/19 02:16:48;;;;;;;8.30;5.13;;;;;;;5.19;100.00;102581.09;1277421;23;20274;-75
2023/05/19 02:17:21;;;;;;;7.70;5.35;;;;;;;5.20;100.00;102577.50;1268005;23;20261;-75
2023/05/19 02:17:54;;;;;;;8.85;5.20;;;;;;;5.19;100.00;102581.09;1261618;23;20805;-74
2023/05/19 02:18:28;;;;;;;10.30;5.70;;;;;;;5.16;100.00;102577.88;1265678;23;20270;-75
2023/05/19 02:19:00;;;;;;;8.82;5.50;;;;;;;5.16;100.00;102570.78;1275273;23;20566;-75
2023/05/19 02:19:37;;;;;;;9.20;5.82;;;;;;;5.16;100.00;102573.44;1281593;23;20721;-75
2023/05/19 02:20:12;;;;;;;13.02;5.70;;;;;;;5.16;100.00;102575.25;1274594;23;20665;-75
2023/05/19 02:20:43;;;;;;;11.68;5.68;;;;;;;5.16;100.00;102573.44;1276410;23;20245;-75
2023/05/19 02:21:15;;;;;;;8.48;5.72;;;;;;;5.17;100.00;102571.63;1280222;23;20260;-75
2023/05/19 02:21:48;;;;;;;7.70;5.20;;;;;;;5.11;100.00;102570.38;1272868;23;20951;-75
2023/05/19 02:22:20;;;;;;;9.60;5.90;;;;;;;5.08;100.00;102569.81;1281582;23;20642;-75
2023/05/19 02:22:51;;;;;;;12.40;6.47;;;;;;;5.08;100.00;102568.00;1287834;23;20705;-75
2023/05/19 02:23:23;;;;;;;8.45;7.15;;;;;;;5.14;100.00;102567.47;1292991;23;20251;-74
2023/05/19 02:23:55;;;;;;;10.65;5.72;;;;;;;5.03;100.00;102564.97;1278883;23;20863;-75
2023/05/19 02:24:27;;;;;;;8.40;6.65;;;;;;;5.03;100.00;102564.97;1286522;23;20252;-74
2023/05/19 02:24:59;;;;;;;7.80;6.05;;;;;;;5.05;100.00;102572.75;1277997;23;20279;-75
2023/05/19 02:25:31;;;;;;;10.52;5.88;;;;;;;5.03;100.00;102564.97;1275999;23;20261;-78
2023/05/19 02:26:03;;;;;;;8.48;5.75;;;;;;;5.06;100.00;102563.84;1274135;23;20736;-76
2023/05/19 02:26:37;;;;;;;14.40;7.03;;;;;;;5.11;100.00;102567.75;1271466;23;20756;-75
2023/05/19 02:27:08;;;;;;;11.18;7.07;;;;;;;5.03;100.00;102561.47;1266003;23;20265;-74
2023/05/19 02:27:40;;;;;;;7.97;6.78;;;;;;;5.03;100.00;102558.84;1270151;23;20253;-78
2023/05/19 02:28:12;;;;;;;7.88;6.03;;;;;;;5.04;100.00;102566.63;1270890;23;20337;-78
2023/05/19 02:28:43;;;;;;;9.77;6.28;;;;;;;5.02;100.00;102568.56;1273809;23;20769;-79
2023/05/19 02:29:15;;;;;;;11.18;6.43;;;;;;;5.04;100.00;102566.63;1277532;23;20798;-79
2023/05/19 02:29:47;;;;;;;9.88;6.95;;;;;;;5.05;100.00;102560.38;1280968;23;20266;-79
2023/05/19 02:30:18;;;;;;;8.10;6.03;;;;;;;5.02;100.00;102563.28;1286136;23;20330;-79
2023/05/19 02:30:50;;;;;;;9.60;6.93;;;;;;;5.02;100.00;102570.38;1287079;23;20255;-78
2023/05/19 02:31:21;;;;;;;10.13;6.63;;;;;;;5.01;100.00;102560.78;1292463;23;20263;-79
2023/05/19 02:31:53;;;;;;;12.00;6.05;;;;;;;4.98;100.00;102564.53;1286352;23;20262;-79
2023/05/19 02:32:25;;;;;;;8.85;5.55;;;;;;;4.92;100.00;102567.72;1286118;23;20252;-79
2023/05/19 02:32:57;;;;;;;12.82;6.88;;;;;;;4.95;100.00;102563.00;1287157;23;20604;-79
2023/05/19 02:33:29;;;;;;;13.68;7.32;;;;;;;5.00;100.00;102570.53;1292668;23;20262;-79
2023/05/19 02:34:00;;;;;;;10.07;5.75;;;;;;;5.00;100.00;102569.69;1292936;22;20283;-79
2023/05/19 02:34:33;;;;;;;11.07;7.28;;;;;;;4.96;100.00;102563.84;1292870;22;20258;-78
2023/05/19 02:35:08;;;;;;;8.68;5.93;;;;;;;4.93;100.00;102564.09;1284839;23;20729;-76
2023/05/19 02:35:40;;;;;;;7.82;5.93;;;;;;;4.98;100.00;102561.91;1285535;23;20275;-78
2023/05/19 02:36:13;;;;;;;9.93;6.18;;;;;;;5.00;100.00;102559.97;1286347;23;20749;-75
2023/05/19 02:36:48;;;;;;;8.75;6.80;;;;;;;4.92;100.00;102563.25;1281900;23;20404;-75
2023/05/19 02:37:22;;;;;;;10.88;7.55;;;;;;;4.96;100.00;102561.22;1287985;23;20244;-75
2023/05/19 02:37:54;;;;;;;10.45;6.13;;;;;;;5.07;100.00;102566.34;1278086;23;20330;-75
2023/05/19 02:38:26;;;;;;;10.43;5.85;;;;;;;5.00;100.00;102559.13;1268303;23;20262;-75
2023/05/19 02:38:59;;;;;;;11.95;6.05;;;;;;;5.03;100.00;102564.13;1267826;23;20769;-75
2023/05/19 02:39:33;;;;;;;9.98;6.57;;;;;;;5.09;100.00;102561.75;1270782;23;20626;-75
2023/05/19 02:40:06;;;;;;;10.48;6.35;;;;;;;5.12;100.00;102553.56;1275401;23;20265;-75
2023/05/19 02:40:38;;;;;;;9.13;6.20;;;;;;;5.21;100.00;102565.13;1288281;23;20708;-75
2023/05/19 02:41:10;;;;;;;7.72;6.47;;;;;;;5.29;100.00;102562.63;1292661;23;20251;-75
2023/05/19 02:41:43;;;;;;;15.63;9.10;;;;;;;5.28;100.00;102563.59;1284881;23;20274;-75
2023/05/19 02:42:17;;;;;;;10.23;6.43;;;;;;;5.36;100.00;102555.78;1284826;23;20267;-79
2023/05/19 02:42:49;;;;;;;9.63;6.70;;;;;;;5.36;100.00;102565.53;1284630;23;20263;-79
2023/05/19 02:43:20;;;;;;;18.80;7.72;;;;;;;5.45;100.00;102562.03;1280039;23;20248;-79